createdAt,value
2019-05-13T00:00:31.320Z,1.80
2019-05-13T00:03:03.374Z,1.82
2019-05-13T00:05:34.032Z,1.62
2019-05-13T00:08:04.850Z,1.67
2019-05-13T00:10:37.621Z,1.72
2019-05-13T00:13:08.127Z,1.50
2019-05-13T00:15:38.341Z,2.08
2019-05-13T00:18:08.306Z,1.60
2019-05-13T00:20:39.953Z,2.27
2019-05-13T00:23:10.551Z,1.90
2019-05-13T00:25:40.721Z,2.20
2019-05-13T00:28:11.450Z,1.98
2019-05-13T00:30:44.463Z,2.02
2019-05-13T00:33:15.161Z,2.30
2019-05-13T00:35:45.798Z,2.00
2019-05-13T00:38:16.824Z,2.00
2019-05-13T00:40:47.978Z,2.63
2019-05-13T00:43:18.551Z,2.67
2019-05-13T00:45:49.239Z,3.52
2019-05-13T00:48:19.753Z,2.30
2019-05-13T00:50:51.358Z,2.45
2019-05-13T00:53:23.604Z,2.10
2019-05-13T00:55:53.639Z,2.45
2019-05-13T00:58:24.468Z,2.65
2019-05-13T01:00:55.203Z,2.40
2019-05-13T01:03:28.281Z,2.47
2019-05-13T01:05:56.841Z,3.00
2019-05-13T01:08:27.379Z,2.42
2019-05-13T01:10:58.025Z,2.70
2019-05-13T01:13:28.535Z,2.50
2019-05-13T01:15:59.204Z,2.80
2019-05-13T01:18:29.238Z,2.62
2019-05-13T01:20:59.361Z,3.10
2019-05-13T01:23:30.075Z,2.90
2019-05-13T01:26:00.826Z,2.45
2019-05-13T01:28:30.978Z,2.75
2019-05-13T01:31:01.101Z,2.57
2019-05-13T01:33:31.716Z,2.42
2019-05-13T01:36:05.017Z,2.80
2019-05-13T01:38:34.829Z,2.92
2019-05-13T01:41:05.004Z,2.90
2019-05-13T01:43:35.077Z,3.00
2019-05-13T01:46:05.752Z,2.75
2019-05-13T01:48:35.690Z,2.87
2019-05-13T01:51:07.796Z,2.50
2019-05-13T01:53:38.529Z,2.77
2019-05-13T01:56:09.260Z,2.98
2019-05-13T01:58:41.731Z,2.77
2019-05-13T02:01:13.803Z,3.12
2019-05-13T02:03:44.370Z,2.92
2019-05-13T02:06:15.224Z,3.15
2019-05-13T02:08:47.805Z,3.00
2019-05-13T02:11:17.894Z,3.22
2019-05-13T02:13:47.861Z,3.45
2019-05-13T02:16:18.099Z,2.87
2019-05-13T02:18:48.786Z,2.80
2019-05-13T02:21:19.477Z,2.90
2019-05-13T02:23:50.131Z,2.70
2019-05-13T02:26:20.232Z,2.60
2019-05-13T02:28:53.991Z,2.92
2019-05-13T02:31:39.554Z,2.50
2019-05-13T02:33:57.428Z,2.40
2019-05-13T02:36:28.216Z,2.70
2019-05-13T02:39:02.498Z,2.62
2019-05-13T02:41:34.088Z,2.50
2019-05-13T02:44:05.193Z,2.50
2019-05-13T02:46:35.338Z,2.60
2019-05-13T02:49:07.999Z,2.25
2019-05-13T02:51:38.094Z,2.50
2019-05-13T02:54:27.398Z,2.52
2019-05-13T02:56:59.055Z,2.52
2019-05-13T02:59:33.311Z,2.45
2019-05-13T03:02:03.683Z,2.40
2019-05-13T03:04:33.689Z,1.98
2019-05-13T03:07:04.420Z,2.05
2019-05-13T03:09:36.178Z,2.25
2019-05-13T03:12:06.901Z,2.05
2019-05-13T03:14:38.357Z,2.72
2019-05-13T03:17:16.444Z,2.15
2019-05-13T03:19:52.710Z,2.22
2019-05-13T03:22:22.376Z,2.20
2019-05-13T03:24:52.822Z,2.27
2019-05-13T03:27:25.238Z,2.70
2019-05-13T03:29:55.137Z,2.50
2019-05-13T03:32:31.153Z,2.08
2019-05-13T03:34:57.463Z,2.37
2019-05-13T03:37:28.648Z,2.70
2019-05-13T03:43:02.842Z,2.02
2019-05-13T03:45:35.801Z,2.20
2019-05-13T03:48:06.530Z,2.50
2019-05-13T03:50:39.016Z,2.13
2019-05-13T03:53:12.144Z,2.27
2019-05-13T03:55:43.435Z,2.45
2019-05-13T03:58:13.924Z,2.30
2019-05-13T04:00:47.417Z,2.20
2019-05-13T04:03:18.037Z,2.65
2019-05-13T04:05:52.321Z,2.60
2019-05-13T04:08:22.754Z,2.47
2019-05-13T04:10:53.915Z,2.58
2019-05-13T04:13:24.783Z,2.20
2019-05-13T04:15:55.703Z,2.40
2019-05-13T04:18:26.523Z,2.50
2019-05-13T04:20:57.123Z,2.30
2019-05-13T04:23:27.181Z,2.33
2019-05-13T04:25:58.670Z,2.95
2019-05-13T04:28:32.737Z,2.87
2019-05-13T04:31:03.504Z,2.70
2019-05-13T04:33:33.885Z,2.60
2019-05-13T04:36:04.640Z,6.03
2019-05-13T04:38:35.433Z,5.28
2019-05-13T04:41:06.447Z,3.55
2019-05-13T04:43:37.412Z,3.80
2019-05-13T04:46:09.030Z,3.72
2019-05-13T04:48:43.885Z,2.72
2019-05-13T04:51:13.619Z,3.00
2019-05-13T04:53:43.999Z,3.40
2019-05-13T04:56:14.461Z,3.35
2019-05-13T04:58:46.319Z,3.40
2019-05-13T05:01:40.528Z,3.08
2019-05-13T05:04:43.541Z,3.00
2019-05-13T05:07:43.069Z,3.08
2019-05-13T05:10:30.573Z,2.80
2019-05-13T05:13:02.371Z,2.92
2019-05-13T05:15:56.694Z,3.27
2019-05-13T05:18:53.163Z,3.30
2019-05-13T05:21:44.122Z,2.92
2019-05-13T05:24:34.509Z,2.80
2019-05-13T05:27:25.492Z,2.80
2019-05-13T05:30:11.396Z,2.77
2019-05-13T05:33:04.690Z,2.50
2019-05-13T05:35:54.681Z,2.58
2019-05-13T05:38:47.275Z,2.47
2019-05-13T05:41:21.378Z,1.95
2019-05-13T05:43:53.742Z,2.25
2019-05-13T05:46:25.353Z,2.20
2019-05-13T05:48:58.339Z,2.05
2019-05-13T05:51:31.469Z,3.20
2019-05-13T05:54:03.892Z,13.55
2019-05-13T05:56:34.942Z,5.72
2019-05-13T05:59:05.351Z,4.20
2019-05-13T06:01:37.429Z,2.95
2019-05-13T06:04:08.081Z,2.58
2019-05-13T06:06:41.547Z,2.30
2019-05-13T06:09:14.711Z,2.20
2019-05-13T06:11:45.831Z,2.40
2019-05-13T06:14:16.634Z,2.05
2019-05-13T06:16:47.385Z,2.10
2019-05-13T06:19:18.957Z,2.02
2019-05-13T06:21:51.329Z,1.87
2019-05-13T06:24:24.744Z,1.77
2019-05-13T06:26:54.457Z,2.10
2019-05-13T06:29:26.233Z,2.00
2019-05-13T06:32:14.058Z,2.10
2019-05-13T06:34:32.678Z,1.95
2019-05-13T06:37:02.722Z,2.00
2019-05-13T06:39:33.362Z,1.80
2019-05-13T06:42:04.201Z,1.80
2019-05-13T06:44:35.893Z,1.75
2019-05-13T06:47:06.599Z,1.72
2019-05-13T06:49:38.196Z,1.70
2019-05-13T06:52:08.916Z,2.10
2019-05-13T06:54:41.646Z,2.00
2019-05-13T06:57:13.339Z,1.65
2019-05-13T06:59:44.007Z,1.85
2019-05-13T07:02:14.762Z,1.50
2019-05-13T07:04:45.446Z,1.55
2019-05-13T07:07:17.347Z,1.70
2019-05-13T07:09:48.479Z,1.65
2019-05-13T07:12:19.034Z,1.72
2019-05-13T07:14:51.768Z,1.90
2019-05-13T07:17:22.407Z,2.00
2019-05-13T07:19:53.638Z,1.90
2019-05-13T07:22:24.609Z,1.80
2019-05-13T07:24:55.356Z,2.25
2019-05-13T07:27:26.104Z,1.50
2019-05-13T07:30:11.351Z,2.00
2019-05-13T07:32:42.119Z,1.50
2019-05-13T07:35:14.429Z,1.35
2019-05-13T07:37:45.829Z,1.50
2019-05-13T07:40:16.690Z,1.00
2019-05-13T07:42:47.410Z,1.55
2019-05-13T07:45:18.204Z,0.93
2019-05-13T07:47:48.454Z,0.85
2019-05-13T07:50:22.775Z,1.10
2019-05-13T07:52:53.586Z,0.88
2019-05-13T07:55:24.194Z,1.20
2019-05-13T07:57:54.833Z,0.80
2019-05-13T08:00:25.511Z,1.30
2019-05-13T08:02:57.001Z,0.90
2019-05-13T08:05:27.738Z,1.62
2019-05-13T08:07:58.360Z,0.90
2019-05-13T08:10:29.293Z,0.90
2019-05-13T08:13:02.201Z,0.80
2019-05-13T08:15:32.377Z,0.80
2019-05-13T08:18:03.010Z,0.85
2019-05-13T08:20:34.770Z,0.60
2019-05-13T08:23:05.442Z,0.90
2019-05-13T08:25:36.762Z,0.98
2019-05-13T08:28:07.302Z,1.05
2019-05-13T08:30:37.908Z,1.25
2019-05-13T08:33:12.227Z,1.98
2019-05-13T08:35:46.897Z,1.50
2019-05-13T08:38:14.163Z,1.10
2019-05-13T08:40:44.906Z,1.00
2019-05-13T08:43:16.613Z,1.70
2019-05-13T08:45:47.259Z,1.20
2019-05-13T08:48:17.918Z,1.10
2019-05-13T08:50:48.657Z,1.20
2019-05-13T08:53:21.221Z,1.20
2019-05-13T08:55:51.834Z,1.50
2019-05-13T08:58:22.642Z,1.75
2019-05-13T09:00:58.878Z,1.92
2019-05-13T09:03:27.871Z,1.50
2019-05-13T09:05:58.825Z,1.70
2019-05-13T09:08:31.830Z,1.62
2019-05-13T09:11:02.999Z,1.67
2019-05-13T09:13:34.816Z,1.50
2019-05-13T09:16:05.830Z,1.87
2019-05-13T09:18:36.351Z,1.67
2019-05-13T09:21:06.873Z,1.47
2019-05-13T09:23:37.659Z,1.77
2019-05-13T09:26:08.362Z,2.00
2019-05-13T09:28:41.742Z,1.90
2019-05-13T09:31:12.777Z,1.90
2019-05-13T09:33:43.638Z,1.77
2019-05-13T09:36:14.387Z,1.20
2019-05-13T09:38:45.031Z,1.42
2019-05-13T09:41:15.784Z,1.22
2019-05-13T09:43:46.591Z,1.30
2019-05-13T09:46:17.257Z,1.00
2019-05-13T09:48:51.636Z,1.10
2019-05-13T09:51:22.717Z,0.93
2019-05-13T09:53:53.438Z,1.20
2019-05-13T09:56:24.140Z,1.10
2019-05-13T09:58:55.969Z,1.10
2019-05-13T10:01:28.126Z,1.10
2019-05-13T10:03:58.858Z,1.22
2019-05-13T10:06:32.351Z,1.60
2019-05-13T10:09:04.724Z,2.67
2019-05-13T10:11:35.694Z,2.10
2019-05-13T10:14:06.448Z,1.72
2019-05-13T10:16:37.180Z,1.37
2019-05-13T10:19:08.032Z,1.10
2019-05-13T10:21:38.772Z,1.20
2019-05-13T10:24:12.353Z,1.60
2019-05-13T10:26:43.298Z,1.32
2019-05-13T10:29:15.536Z,1.10
2019-05-13T10:31:46.982Z,1.10
2019-05-13T10:34:17.897Z,1.50
2019-05-13T10:36:51.241Z,1.30
2019-05-13T10:39:28.275Z,1.15
2019-05-13T10:41:59.195Z,1.00
2019-05-13T10:44:29.860Z,1.00
2019-05-13T10:47:02.529Z,1.10
2019-05-13T10:49:42.632Z,1.02
2019-05-13T10:52:15.253Z,1.00
2019-05-13T10:54:46.022Z,1.10
2019-05-13T10:57:16.872Z,1.05
2019-05-13T10:59:48.264Z,1.10
2019-05-13T11:02:22.209Z,1.30
2019-05-13T11:04:53.048Z,1.40
2019-05-13T11:07:23.916Z,1.45
2019-05-13T11:09:54.727Z,1.27
2019-05-13T11:12:28.609Z,1.30
2019-05-13T11:14:59.012Z,1.00
2019-05-13T11:17:31.312Z,1.10
2019-05-13T11:20:03.422Z,1.10
2019-05-13T11:22:47.905Z,1.20
2019-05-13T11:25:18.603Z,1.30
2019-05-13T11:27:52.317Z,2.50
2019-05-13T11:30:22.996Z,2.00
2019-05-13T11:32:53.642Z,1.80
2019-05-13T11:35:24.382Z,1.10
2019-05-13T11:37:55.153Z,1.25
2019-05-13T11:40:36.403Z,1.30
2019-05-13T11:43:12.268Z,1.30
2019-05-13T11:45:47.830Z,1.35
2019-05-13T11:48:18.798Z,1.75
2019-05-13T11:50:53.746Z,1.77
2019-05-13T11:53:38.478Z,1.30
2019-05-13T11:55:54.973Z,1.75
2019-05-13T11:58:25.709Z,1.62
2019-05-13T12:01:01.842Z,1.70
2019-05-13T12:03:32.403Z,1.90
2019-05-13T12:06:03.527Z,1.95
2019-05-13T12:08:34.478Z,1.90
2019-05-13T12:11:06.518Z,2.45
2019-05-13T12:13:38.986Z,2.17
2019-05-13T12:16:12.223Z,2.45
2019-05-13T12:18:43.658Z,4.28
2019-05-13T12:21:14.163Z,4.65
2019-05-13T12:23:44.896Z,5.00
2019-05-13T12:26:15.799Z,5.50
2019-05-13T12:28:53.580Z,4.35
2019-05-13T12:31:23.098Z,2.80
2019-05-13T12:33:53.824Z,2.47
2019-05-13T12:36:24.593Z,2.55
2019-05-13T12:39:02.497Z,2.65
2019-05-13T12:41:34.362Z,2.35
2019-05-13T12:44:05.117Z,2.58
2019-05-13T12:46:36.057Z,2.12
2019-05-13T12:49:07.890Z,1.80
2019-05-13T12:51:38.525Z,1.80
2019-05-13T12:54:12.550Z,1.90
2019-05-13T12:56:42.548Z,1.87
2019-05-13T12:59:13.687Z,1.75
2019-05-13T13:01:44.363Z,1.85
2019-05-13T13:04:15.077Z,1.85
2019-05-13T13:06:46.883Z,1.60
2019-05-13T13:09:17.672Z,1.72
2019-05-13T13:11:48.543Z,1.67
2019-05-13T13:14:19.105Z,1.52
2019-05-13T13:16:53.458Z,1.82
2019-05-13T13:19:22.449Z,1.60
2019-05-13T13:21:53.700Z,1.60
2019-05-13T13:24:24.596Z,1.98
2019-05-13T13:26:56.823Z,1.70
2019-05-13T13:29:28.802Z,1.50
2019-05-13T13:32:02.718Z,1.70
2019-05-13T13:34:33.680Z,1.60
2019-05-13T13:37:05.071Z,1.45
2019-05-13T13:39:43.187Z,1.57
2019-05-13T13:42:13.492Z,2.08
2019-05-13T13:44:44.097Z,1.55
2019-05-13T13:47:15.402Z,1.80
2019-05-13T13:49:53.268Z,1.40
2019-05-13T13:52:22.934Z,1.75
2019-05-13T13:55:01.987Z,1.57
2019-05-13T13:57:26.065Z,1.70
2019-05-13T14:00:26.442Z,1.62
2019-05-13T14:02:37.009Z,1.55
2019-05-13T14:05:08.242Z,1.52
2019-05-13T14:07:42.115Z,1.70
2019-05-13T14:10:11.746Z,1.50
2019-05-13T14:12:43.671Z,1.50
2019-05-13T14:15:14.401Z,1.57
2019-05-13T14:17:45.531Z,1.50
2019-05-13T14:20:21.916Z,1.27
2019-05-13T14:22:57.646Z,1.35
2019-05-13T14:25:25.060Z,1.82
2019-05-13T14:27:55.830Z,1.40
2019-05-13T14:30:32.085Z,1.40
2019-05-13T14:33:02.944Z,1.15
2019-05-13T14:35:33.575Z,1.40
2019-05-13T14:38:04.915Z,1.32
2019-05-13T14:40:39.533Z,1.45
2019-05-13T14:43:12.084Z,1.57
2019-05-13T14:45:42.800Z,1.60
2019-05-13T14:48:13.518Z,1.30
2019-05-13T14:50:46.248Z,1.77
2019-05-13T14:53:16.984Z,1.80
2019-05-13T14:55:47.825Z,1.60
2019-05-13T14:58:18.624Z,1.70
2019-05-13T15:01:10.379Z,2.05
2019-05-13T15:03:23.664Z,1.87
2019-05-13T15:05:54.274Z,1.80
2019-05-13T15:08:25.881Z,1.70
2019-05-13T15:10:56.762Z,1.65
2019-05-13T15:13:27.861Z,1.60
2019-05-13T15:15:58.478Z,1.60
2019-05-13T15:18:29.111Z,2.02
2019-05-13T15:21:01.685Z,1.92
2019-05-13T15:23:32.413Z,2.15
2019-05-13T15:26:03.168Z,1.82
2019-05-13T15:28:33.964Z,2.20
2019-05-13T15:31:04.773Z,2.10
2019-05-13T15:33:35.826Z,2.17
2019-05-13T15:36:06.479Z,2.47
2019-05-13T15:38:36.936Z,2.30
2019-05-13T15:41:12.040Z,2.00
2019-05-13T15:43:42.699Z,2.30
2019-05-13T15:46:13.712Z,1.95
2019-05-13T15:48:44.334Z,2.00
2019-05-13T15:51:14.861Z,1.87
2019-05-13T15:53:45.720Z,2.35
2019-05-13T15:56:16.378Z,2.10
2019-05-13T15:58:52.611Z,2.33
2019-05-13T16:01:26.685Z,2.10
2019-05-13T16:03:54.170Z,1.82
2019-05-13T16:06:24.787Z,1.90
2019-05-13T16:09:07.521Z,1.80
2019-05-13T16:11:38.059Z,1.85
2019-05-13T16:14:11.451Z,1.77
2019-05-13T16:16:41.906Z,2.02
2019-05-13T16:19:22.121Z,1.72
2019-05-13T16:21:52.817Z,2.08
2019-05-13T16:24:24.648Z,1.90
2019-05-13T16:26:55.307Z,2.08
2019-05-13T16:29:34.122Z,1.82
2019-05-13T16:32:05.406Z,1.52
2019-05-13T16:34:36.592Z,1.82
2019-05-13T16:37:07.464Z,2.17
2019-05-13T16:39:57.499Z,1.90
2019-05-13T16:42:28.449Z,1.70
2019-05-13T16:44:59.212Z,1.47
2019-05-13T16:47:31.849Z,1.50
2019-05-13T16:50:02.857Z,1.60
2019-05-13T16:52:33.704Z,3.15
2019-05-13T16:55:08.278Z,14.65
2019-05-13T16:57:42.157Z,6.95
2019-05-13T17:00:12.836Z,3.90
2019-05-13T17:02:43.574Z,2.95
2019-05-13T17:05:14.555Z,2.50
2019-05-13T17:07:45.165Z,2.50
2019-05-13T17:10:17.074Z,1.95
2019-05-13T17:12:47.691Z,1.90
2019-05-13T17:15:21.120Z,2.42
2019-05-13T17:17:51.487Z,2.42
2019-05-13T17:20:22.618Z,2.02
2019-05-13T17:22:53.188Z,2.12
2019-05-13T17:25:24.406Z,2.00
2019-05-13T17:27:55.143Z,2.10
2019-05-13T17:30:26.033Z,2.00
2019-05-13T17:32:57.634Z,2.10
2019-05-13T17:35:31.232Z,2.10
2019-05-13T17:38:02.006Z,4.25
2019-05-13T17:40:32.858Z,20.35
2019-05-13T17:43:03.410Z,24.70
2019-05-13T17:45:34.115Z,10.18
2019-05-13T17:48:04.938Z,5.53
2019-05-13T17:50:37.643Z,4.47
2019-05-13T17:53:11.439Z,3.58
2019-05-13T17:55:41.882Z,3.15
2019-05-13T17:58:13.705Z,3.40
2019-05-13T18:00:46.008Z,2.70
2019-05-13T18:03:16.649Z,2.87
2019-05-13T18:05:47.360Z,2.80
2019-05-13T18:08:24.004Z,3.37
2019-05-13T18:10:54.664Z,3.15
2019-05-13T18:13:25.295Z,2.90
2019-05-13T18:15:55.941Z,3.05
2019-05-13T18:21:11.813Z,4.12
2019-05-13T18:23:42.106Z,23.22
2019-05-13T18:26:15.766Z,22.17
2019-05-13T18:28:45.039Z,14.40
2019-05-13T18:31:15.948Z,14.15
2019-05-13T18:33:48.132Z,16.87
2019-05-13T18:36:18.774Z,8.10
2019-05-13T18:38:49.414Z,4.20
2019-05-13T18:41:21.368Z,3.00
2019-05-13T18:43:54.871Z,3.20
2019-05-13T18:46:24.650Z,2.92
2019-05-13T18:48:59.393Z,3.22
2019-05-13T18:51:31.558Z,3.72
2019-05-13T18:54:04.603Z,3.10
2019-05-13T18:56:35.826Z,2.98
2019-05-13T18:59:07.442Z,3.05
2019-05-13T19:01:38.142Z,2.90
2019-05-13T19:04:08.688Z,3.05
2019-05-13T19:06:42.035Z,2.85
2019-05-13T19:09:15.583Z,2.83
2019-05-13T19:11:46.402Z,2.60
2019-05-13T19:14:17.125Z,2.83
2019-05-13T19:16:47.756Z,2.92
2019-05-13T19:19:22.217Z,2.62
2019-05-13T19:21:51.136Z,2.70
2019-05-13T19:24:23.362Z,2.80
2019-05-13T19:26:54.073Z,2.72
2019-05-13T19:29:28.198Z,2.87
2019-05-13T19:32:18.157Z,3.50
2019-05-13T19:34:51.537Z,3.50
2019-05-13T19:37:22.382Z,3.62
2019-05-13T19:39:53.522Z,3.45
2019-05-13T19:42:24.262Z,3.60
2019-05-13T19:44:55.081Z,3.60
2019-05-13T19:47:25.844Z,15.32
2019-05-13T19:50:01.894Z,5.55
2019-05-13T19:52:52.608Z,3.35
2019-05-13T19:55:23.806Z,3.67
2019-05-13T19:57:54.894Z,4.05
2019-05-13T20:00:25.896Z,3.67
2019-05-13T20:02:58.055Z,3.60
2019-05-13T20:05:31.786Z,3.40
2019-05-13T20:08:02.014Z,3.77
2019-05-13T20:10:32.774Z,3.20
2019-05-13T20:13:03.530Z,4.60
2019-05-13T20:15:34.381Z,3.83
2019-05-13T20:18:05.230Z,2.80
2019-05-13T20:20:41.247Z,4.20
2019-05-13T20:23:17.380Z,2.62
2019-05-13T20:25:52.060Z,2.22
2019-05-13T20:28:22.046Z,2.20
2019-05-13T20:31:11.085Z,4.75
2019-05-13T20:33:43.363Z,4.47
2019-05-13T20:36:22.257Z,3.40
2019-05-13T20:39:15.239Z,2.85
2019-05-13T21:00:28.663Z,18.15
2019-05-13T21:03:08.769Z,8.78
2019-05-13T21:05:54.499Z,2.85
2019-05-13T21:11:45.592Z,1.62
2019-05-13T21:14:34.641Z,1.90
2019-05-13T21:17:22.640Z,1.95
2019-05-13T21:20:18.499Z,28.38
2019-05-13T21:22:47.449Z,10.63
2019-05-13T21:25:42.167Z,9.50
2019-05-13T21:28:24.839Z,5.60
2019-05-13T21:31:22.453Z,2.60
2019-05-13T21:34:03.838Z,2.15
2019-05-13T21:37:05.633Z,1.50
2019-05-13T21:42:47.533Z,1.80
2019-05-13T21:45:38.206Z,1.60
2019-05-13T21:48:32.935Z,1.50
2019-05-13T21:51:35.418Z,1.52
2019-05-13T21:54:23.657Z,1.65
2019-05-13T21:57:03.582Z,1.50
2019-05-13T22:00:03.159Z,1.55
2019-05-13T22:02:35.501Z,1.42
2019-05-13T22:05:06.215Z,1.62
2019-05-13T22:07:36.827Z,1.65
2019-05-13T22:10:11.964Z,1.75
2019-05-13T22:12:42.710Z,1.50
2019-05-13T22:15:13.636Z,1.80
2019-05-13T22:17:44.305Z,1.90
2019-05-13T22:20:20.904Z,1.62
2019-05-13T22:22:52.069Z,1.40
2019-05-13T22:25:22.897Z,2.15
2019-05-13T22:27:52.962Z,2.10
2019-05-13T22:30:25.601Z,1.85
2019-05-13T22:32:56.784Z,2.27
2019-05-13T22:35:27.357Z,1.87
2019-05-13T22:37:58.035Z,1.70
2019-05-13T22:40:32.273Z,1.70
2019-05-13T22:43:03.077Z,1.80
2019-05-13T22:45:33.611Z,2.35
2019-05-13T22:48:04.552Z,2.20
2019-05-13T22:50:41.465Z,2.10
2019-05-13T22:53:11.975Z,2.00
2019-05-13T22:55:42.948Z,1.92
2019-05-13T22:58:13.612Z,1.70
2019-05-13T23:00:45.258Z,1.98
2019-05-13T23:03:17.466Z,1.52
2019-05-13T23:05:48.330Z,1.90
2019-05-13T23:08:19.041Z,2.00
2019-05-13T23:10:51.484Z,1.85
2019-05-13T23:13:22.447Z,1.72
2019-05-13T23:15:52.990Z,1.90
2019-05-13T23:18:23.826Z,1.62
2019-05-13T23:20:54.348Z,2.02
2019-05-13T23:23:24.998Z,2.10
2019-05-13T23:25:56.936Z,1.77
2019-05-13T23:28:27.757Z,2.15
2019-05-13T23:30:58.281Z,2.10
2019-05-13T23:33:31.202Z,2.05
2019-05-13T23:36:01.558Z,2.00
2019-05-13T23:38:32.550Z,2.30
2019-05-13T23:41:03.066Z,2.17
2019-05-13T23:43:33.720Z,2.02
2019-05-13T23:46:04.347Z,2.60
2019-05-13T23:48:34.986Z,2.22
2019-05-13T23:51:05.678Z,2.50
2019-05-13T23:53:36.314Z,2.27
2019-05-13T23:56:07.025Z,2.58
2019-05-13T23:58:37.699Z,2.87
